sensor_id;sensor_type;location;lat;lon;timestamp;temperature;humidity
48328;DHT22;34136;51.022;7.082;2023-10-19T00:00:46;12.10;1.00
48328;DHT22;34136;51.022;7.082;2023-10-19T00:03:33;12.10;1.00
48328;DHT22;34136;51.022;7.082;2023-10-19T00:06:19;12.20;1.00
48328;DHT22;34136;51.022;7.082;2023-10-19T00:09:05;12.20;1.00
48328;DHT22;34136;51.022;7.082;2023-10-19T00:11:51;12.20;1.00
48328;DHT22;34136;51.022;7.082;2023-10-19T00:14:37;12.30;1.00
48328;DHT22;34136;51.022;7.082;2023-10-19T00:17:23;12.30;1.00
48328;DHT22;34136;51.022;7.082;2023-10-19T00:20:10;12.30;1.00
48328;DHT22;34136;51.022;7.082;2023-10-19T00:22:56;12.30;1.00
48328;DHT22;34136;51.022;7.082;2023-10-19T00:25:42;12.30;1.00
48328;DHT22;34136;51.022;7.082;2023-10-19T00:28:28;12.40;1.00
48328;DHT22;34136;51.022;7.082;2023-10-19T00:31:14;12.50;1.00
48328;DHT22;34136;51.022;7.082;2023-10-19T00:34:00;12.50;1.00
48328;DHT22;34136;51.022;7.082;2023-10-19T00:36:46;12.40;1.00
48328;DHT22;34136;51.022;7.082;2023-10-19T00:39:35;12.50;1.00
48328;DHT22;34136;51.022;7.082;2023-10-19T00:42:23;12.50;1.00
48328;DHT22;34136;51.022;7.082;2023-10-19T00:45:09;12.50;1.00
48328;DHT22;34136;51.022;7.082;2023-10-19T00:47:55;12.50;1.00
48328;DHT22;34136;51.022;7.082;2023-10-19T00:50:42;12.50;1.00
48328;DHT22;34136;51.022;7.082;2023-10-19T00:53:28;12.60;1.00
48328;DHT22;34136;51.022;7.082;2023-10-19T00:56:16;12.70;1.00
48328;DHT22;34136;51.022;7.082;2023-10-19T00:59:03;12.60;1.00
48328;DHT22;34136;51.022;7.082;2023-10-19T01:01:53;12.70;1.00
48328;DHT22;34136;51.022;7.082;2023-10-19T01:04:39;12.70;1.00
48328;DHT22;34136;51.022;7.082;2023-10-19T01:07:27;12.70;1.00
48328;DHT22;34136;51.022;7.082;2023-10-19T01:10:13;12.70;1.00
48328;DHT22;34136;51.022;7.082;2023-10-19T01:13:00;12.80;1.00
48328;DHT22;34136;51.022;7.082;2023-10-19T01:15:46;12.80;1.00
48328;DHT22;34136;51.022;7.082;2023-10-19T01:18:32;12.70;1.00
48328;DHT22;34136;51.022;7.082;2023-10-19T01:21:20;12.70;1.00
48328;DHT22;34136;51.022;7.082;2023-10-19T01:24:08;12.80;1.00
48328;DHT22;34136;51.022;7.082;2023-10-19T01:26:54;12.80;1.00
48328;DHT22;34136;51.022;7.082;2023-10-19T01:29:40;12.90;1.00
48328;DHT22;34136;51.022;7.082;2023-10-19T01:32:29;12.90;1.00
48328;DHT22;34136;51.022;7.082;2023-10-19T01:35:15;12.90;1.00
48328;DHT22;34136;51.022;7.082;2023-10-19T01:38:01;12.90;1.00
48328;DHT22;34136;51.022;7.082;2023-10-19T01:40:47;13.00;1.00
48328;DHT22;34136;51.022;7.082;2023-10-19T01:43:34;13.00;1.00
48328;DHT22;34136;51.022;7.082;2023-10-19T01:46:24;13.00;1.00
48328;DHT22;34136;51.022;7.082;2023-10-19T01:49:10;13.00;1.00
48328;DHT22;34136;51.022;7.082;2023-10-19T01:52:01;13.10;1.00
48328;DHT22;34136;51.022;7.082;2023-10-19T01:54:47;13.10;1.00
48328;DHT22;34136;51.022;7.082;2023-10-19T01:57:33;13.20;1.00
48328;DHT22;34136;51.022;7.082;2023-10-19T02:00:20;13.10;1.00
48328;DHT22;34136;51.022;7.082;2023-10-19T02:03:07;13.20;1.00
48328;DHT22;34136;51.022;7.082;2023-10-19T02:06:01;13.20;1.00
48328;DHT22;34136;51.022;7.082;2023-10-19T02:08:54;13.30;1.00
48328;DHT22;34136;51.022;7.082;2023-10-19T02:11:40;13.30;1.00
48328;DHT22;34136;51.022;7.082;2023-10-19T02:14:27;13.40;1.00
48328;DHT22;34136;51.022;7.082;2023-10-19T02:17:14;13.40;1.00
48328;DHT22;34136;51.022;7.082;2023-10-19T02:20:10;13.40;1.00
48328;DHT22;34136;51.022;7.082;2023-10-19T02:22:57;13.50;1.00
48328;DHT22;34136;51.022;7.082;2023-10-19T02:25:43;13.50;1.00
48328;DHT22;34136;51.022;7.082;2023-10-19T02:28:30;13.50;1.00
48328;DHT22;34136;51.022;7.082;2023-10-19T02:31:19;13.50;1.00
48328;DHT22;34136;51.022;7.082;2023-10-19T02:34:11;13.50;1.00
48328;DHT22;34136;51.022;7.082;2023-10-19T02:36:57;13.60;1.00
48328;DHT22;34136;51.022;7.082;2023-10-19T02:39:43;13.50;1.00
48328;DHT22;34136;51.022;7.082;2023-10-19T02:42:29;13.50;1.00
48328;DHT22;34136;51.022;7.082;2023-10-19T02:45:17;13.50;1.00
48328;DHT22;34136;51.022;7.082;2023-10-19T02:48:05;13.50;1.00
48328;DHT22;34136;51.022;7.082;2023-10-19T02:50:51;13.50;1.00
48328;DHT22;34136;51.022;7.082;2023-10-19T02:53:41;13.50;1.00
48328;DHT22;34136;51.022;7.082;2023-10-19T02:56:27;13.60;1.00
48328;DHT22;34136;51.022;7.082;2023-10-19T02:59:14;13.60;1.00
48328;DHT22;34136;51.022;7.082;2023-10-19T03:02:01;13.60;1.00
48328;DHT22;34136;51.022;7.082;2023-10-19T03:04:48;13.60;1.00
48328;DHT22;34136;51.022;7.082;2023-10-19T03:07:34;13.60;1.00
48328;DHT22;34136;51.022;7.082;2023-10-19T03:10:21;13.60;1.00
48328;DHT22;34136;51.022;7.082;2023-10-19T03:13:10;13.60;1.00
48328;DHT22;34136;51.022;7.082;2023-10-19T03:15:56;13.60;1.00
48328;DHT22;34136;51.022;7.082;2023-10-19T03:18:43;13.60;1.00
48328;DHT22;34136;51.022;7.082;2023-10-19T03:21:30;13.70;1.00
48328;DHT22;34136;51.022;7.082;2023-10-19T03:24:17;13.70;1.00
48328;DHT22;34136;51.022;7.082;2023-10-19T03:27:09;13.70;1.00
48328;DHT22;34136;51.022;7.082;2023-10-19T03:29:55;13.80;1.00
48328;DHT22;34136;51.022;7.082;2023-10-19T03:32:42;13.80;1.00
48328;DHT22;34136;51.022;7.082;2023-10-19T03:35:28;13.80;1.00
48328;DHT22;34136;51.022;7.082;2023-10-19T03:38:15;13.70;1.00
48328;DHT22;34136;51.022;7.082;2023-10-19T03:41:01;13.70;1.00
48328;DHT22;34136;51.022;7.082;2023-10-19T03:43:48;13.70;1.00
48328;DHT22;34136;51.022;7.082;2023-10-19T03:46:34;13.80;1.00
48328;DHT22;34136;51.022;7.082;2023-10-19T03:49:20;13.70;1.00
48328;DHT22;34136;51.022;7.082;2023-10-19T03:52:07;13.70;1.00
48328;DHT22;34136;51.022;7.082;2023-10-19T03:54:54;13.70;1.00
48328;DHT22;34136;51.022;7.082;2023-10-19T03:57:43;13.60;1.00
48328;DHT22;34136;51.022;7.082;2023-10-19T04:00:30;13.70;1.00
48328;DHT22;34136;51.022;7.082;2023-10-19T04:03:17;13.70;1.00
48328;DHT22;34136;51.022;7.082;2023-10-19T04:06:03;13.70;1.00
48328;DHT22;34136;51.022;7.082;2023-10-19T04:08:48;13.70;1.00
48328;DHT22;34136;51.022;7.082;2023-10-19T04:11:34;13.80;1.00
48328;DHT22;34136;51.022;7.082;2023-10-19T04:14:21;13.80;1.00
48328;DHT22;34136;51.022;7.082;2023-10-19T04:17:07;13.80;1.00
48328;DHT22;34136;51.022;7.082;2023-10-19T04:19:53;13.70;1.00
48328;DHT22;34136;51.022;7.082;2023-10-19T04:22:39;13.70;1.00
48328;DHT22;34136;51.022;7.082;2023-10-19T04:25:25;13.70;1.00
48328;DHT22;34136;51.022;7.082;2023-10-19T04:28:11;13.70;1.00
48328;DHT22;34136;51.022;7.082;2023-10-19T04:30:58;13.70;1.00
48328;DHT22;34136;51.022;7.082;2023-10-19T04:33:45;13.70;1.00
48328;DHT22;34136;51.022;7.082;2023-10-19T04:36:32;13.70;1.00
48328;DHT22;34136;51.022;7.082;2023-10-19T04:39:18;13.80;1.00
48328;DHT22;34136;51.022;7.082;2023-10-19T04:42:04;13.80;1.00
48328;DHT22;34136;51.022;7.082;2023-10-19T04:44:51;13.80;1.00
48328;DHT22;34136;51.022;7.082;2023-10-19T04:47:37;13.80;1.00
48328;DHT22;34136;51.022;7.082;2023-10-19T04:50:24;13.70;1.00
48328;DHT22;34136;51.022;7.082;2023-10-19T04:53:09;13.70;1.00
48328;DHT22;34136;51.022;7.082;2023-10-19T04:55:56;13.80;1.00
48328;DHT22;34136;51.022;7.082;2023-10-19T04:58:42;13.80;1.00
48328;DHT22;34136;51.022;7.082;2023-10-19T05:01:29;13.80;1.00
48328;DHT22;34136;51.022;7.082;2023-10-19T05:04:17;13.80;1.00
48328;DHT22;34136;51.022;7.082;2023-10-19T05:07:03;13.80;1.00
48328;DHT22;34136;51.022;7.082;2023-10-19T05:09:49;13.90;1.00
48328;DHT22;34136;51.022;7.082;2023-10-19T05:12:35;13.90;1.00
48328;DHT22;34136;51.022;7.082;2023-10-19T05:15:22;14.00;1.00
48328;DHT22;34136;51.022;7.082;2023-10-19T05:18:08;13.90;1.00
48328;DHT22;34136;51.022;7.082;2023-10-19T05:20:54;13.90;1.00
48328;DHT22;34136;51.022;7.082;2023-10-19T05:23:40;13.90;1.00
48328;DHT22;34136;51.022;7.082;2023-10-19T05:26:27;14.00;1.00
48328;DHT22;34136;51.022;7.082;2023-10-19T05:29:13;14.00;1.00
48328;DHT22;34136;51.022;7.082;2023-10-19T05:31:59;14.00;1.00
48328;DHT22;34136;51.022;7.082;2023-10-19T05:34:46;14.10;1.00
48328;DHT22;34136;51.022;7.082;2023-10-19T05:37:32;14.00;1.00
48328;DHT22;34136;51.022;7.082;2023-10-19T05:40:19;14.00;1.00
48328;DHT22;34136;51.022;7.082;2023-10-19T05:43:05;14.00;1.00
48328;DHT22;34136;51.022;7.082;2023-10-19T05:45:51;14.10;1.00
48328;DHT22;34136;51.022;7.082;2023-10-19T05:48:37;14.10;1.00
48328;DHT22;34136;51.022;7.082;2023-10-19T05:51:23;14.10;1.00
48328;DHT22;34136;51.022;7.082;2023-10-19T05:54:10;14.10;1.00
48328;DHT22;34136;51.022;7.082;2023-10-19T05:56:57;14.10;1.00
48328;DHT22;34136;51.022;7.082;2023-10-19T05:59:43;14.10;1.00
48328;DHT22;34136;51.022;7.082;2023-10-19T06:02:29;14.10;1.00
48328;DHT22;34136;51.022;7.082;2023-10-19T06:05:16;14.20;1.00
48328;DHT22;34136;51.022;7.082;2023-10-19T06:08:02;14.20;1.00
48328;DHT22;34136;51.022;7.082;2023-10-19T06:10:52;14.20;1.00
48328;DHT22;34136;51.022;7.082;2023-10-19T06:13:39;14.20;1.00
48328;DHT22;34136;51.022;7.082;2023-10-19T06:16:25;14.20;1.00
48328;DHT22;34136;51.022;7.082;2023-10-19T06:19:11;14.20;1.00
48328;DHT22;34136;51.022;7.082;2023-10-19T06:21:57;14.30;1.00
48328;DHT22;34136;51.022;7.082;2023-10-19T06:24:44;14.30;1.00
48328;DHT22;34136;51.022;7.082;2023-10-19T06:27:30;14.30;1.00
48328;DHT22;34136;51.022;7.082;2023-10-19T06:30:18;14.30;1.00
48328;DHT22;34136;51.022;7.082;2023-10-19T06:33:04;14.30;1.00
48328;DHT22;34136;51.022;7.082;2023-10-19T06:35:50;14.40;1.00
48328;DHT22;34136;51.022;7.082;2023-10-19T06:38:37;14.40;1.00
48328;DHT22;34136;51.022;7.082;2023-10-19T06:41:23;14.40;1.00
48328;DHT22;34136;51.022;7.082;2023-10-19T06:44:09;14.40;1.00
48328;DHT22;34136;51.022;7.082;2023-10-19T06:46:55;14.50;1.00
48328;DHT22;34136;51.022;7.082;2023-10-19T06:49:42;14.50;1.00
48328;DHT22;34136;51.022;7.082;2023-10-19T06:52:28;14.50;1.00
48328;DHT22;34136;51.022;7.082;2023-10-19T06:55:15;14.50;1.00
48328;DHT22;34136;51.022;7.082;2023-10-19T06:58:02;14.60;1.00
48328;DHT22;34136;51.022;7.082;2023-10-19T07:00:48;14.50;1.00
48328;DHT22;34136;51.022;7.082;2023-10-19T07:03:34;14.60;1.00
48328;DHT22;34136;51.022;7.082;2023-10-19T07:06:20;14.60;1.00
48328;DHT22;34136;51.022;7.082;2023-10-19T07:09:06;14.70;1.00
48328;DHT22;34136;51.022;7.082;2023-10-19T07:11:53;14.70;1.00
48328;DHT22;34136;51.022;7.082;2023-10-19T07:14:39;14.70;1.00
48328;DHT22;34136;51.022;7.082;2023-10-19T07:17:25;14.70;1.00
48328;DHT22;34136;51.022;7.082;2023-10-19T07:20:13;14.70;1.00
48328;DHT22;34136;51.022;7.082;2023-10-19T07:23:01;14.80;1.00
48328;DHT22;34136;51.022;7.082;2023-10-19T07:25:48;14.80;1.00
48328;DHT22;34136;51.022;7.082;2023-10-19T07:28:34;14.80;1.00
48328;DHT22;34136;51.022;7.082;2023-10-19T07:31:21;14.90;1.00
48328;DHT22;34136;51.022;7.082;2023-10-19T07:34:07;14.90;1.00
48328;DHT22;34136;51.022;7.082;2023-10-19T07:36:55;14.90;1.00
48328;DHT22;34136;51.022;7.082;2023-10-19T07:39:50;15.00;1.00
48328;DHT22;34136;51.022;7.082;2023-10-19T07:42:36;15.00;1.00
48328;DHT22;34136;51.022;7.082;2023-10-19T07:45:22;15.00;1.00
48328;DHT22;34136;51.022;7.082;2023-10-19T07:48:08;15.00;1.00
48328;DHT22;34136;51.022;7.082;2023-10-19T07:50:54;15.10;1.00
48328;DHT22;34136;51.022;7.082;2023-10-19T07:53:41;15.10;1.00
48328;DHT22;34136;51.022;7.082;2023-10-19T07:56:27;15.10;1.00
48328;DHT22;34136;51.022;7.082;2023-10-19T07:59:13;15.20;1.00
48328;DHT22;34136;51.022;7.082;2023-10-19T08:02:00;15.20;1.00
48328;DHT22;34136;51.022;7.082;2023-10-19T08:04:47;15.20;1.00
48328;DHT22;34136;51.022;7.082;2023-10-19T08:07:33;15.30;1.00
48328;DHT22;34136;51.022;7.082;2023-10-19T08:10:20;15.40;1.00
48328;DHT22;34136;51.022;7.082;2023-10-19T08:13:07;15.40;1.00
48328;DHT22;34136;51.022;7.082;2023-10-19T08:15:53;15.40;1.00
48328;DHT22;34136;51.022;7.082;2023-10-19T08:18:39;15.40;1.00
48328;DHT22;34136;51.022;7.082;2023-10-19T08:21:25;15.40;1.00
48328;DHT22;34136;51.022;7.082;2023-10-19T08:24:11;15.50;1.00
48328;DHT22;34136;51.022;7.082;2023-10-19T08:26:58;15.50;1.00
48328;DHT22;34136;51.022;7.082;2023-10-19T08:29:45;15.60;1.00
48328;DHT22;34136;51.022;7.082;2023-10-19T08:32:31;15.70;1.00
48328;DHT22;34136;51.022;7.082;2023-10-19T08:35:19;15.80;1.00
48328;DHT22;34136;51.022;7.082;2023-10-19T08:38:05;15.90;1.00
48328;DHT22;34136;51.022;7.082;2023-10-19T08:40:52;16.00;1.00
48328;DHT22;34136;51.022;7.082;2023-10-19T08:43:39;16.00;1.00
48328;DHT22;34136;51.022;7.082;2023-10-19T08:46:25;16.20;1.00
48328;DHT22;34136;51.022;7.082;2023-10-19T08:49:12;16.20;1.00
48328;DHT22;34136;51.022;7.082;2023-10-19T08:51:59;16.30;1.00
48328;DHT22;34136;51.022;7.082;2023-10-19T08:54:46;16.40;1.00
48328;DHT22;34136;51.022;7.082;2023-10-19T08:57:32;16.50;1.00
48328;DHT22;34136;51.022;7.082;2023-10-19T09:00:19;16.60;1.00
48328;DHT22;34136;51.022;7.082;2023-10-19T09:03:05;16.80;1.00
48328;DHT22;34136;51.022;7.082;2023-10-19T09:05:51;16.90;1.00
48328;DHT22;34136;51.022;7.082;2023-10-19T09:08:37;17.10;1.00
48328;DHT22;34136;51.022;7.082;2023-10-19T09:11:24;17.20;1.40
48328;DHT22;34136;51.022;7.082;2023-10-19T09:14:10;17.40;1.40
48328;DHT22;34136;51.022;7.082;2023-10-19T09:16:57;17.50;99.90
48328;DHT22;34136;51.022;7.082;2023-10-19T09:19:45;17.80;99.90
48328;DHT22;34136;51.022;7.082;2023-10-19T09:22:37;17.90;99.90
48328;DHT22;34136;51.022;7.082;2023-10-19T09:25:23;17.90;99.90
48328;DHT22;34136;51.022;7.082;2023-10-19T09:28:09;18.00;99.90
48328;DHT22;34136;51.022;7.082;2023-10-19T09:30:56;18.20;99.90
48328;DHT22;34136;51.022;7.082;2023-10-19T09:33:43;18.20;99.90
48328;DHT22;34136;51.022;7.082;2023-10-19T09:36:29;18.30;99.90
48328;DHT22;34136;51.022;7.082;2023-10-19T09:39:16;18.20;99.90
48328;DHT22;34136;51.022;7.082;2023-10-19T09:42:06;18.20;99.90
48328;DHT22;34136;51.022;7.082;2023-10-19T09:44:59;18.30;99.90
48328;DHT22;34136;51.022;7.082;2023-10-19T09:47:50;18.40;99.90
48328;DHT22;34136;51.022;7.082;2023-10-19T09:50:36;18.60;99.90
48328;DHT22;34136;51.022;7.082;2023-10-19T09:53:26;18.80;99.90
48328;DHT22;34136;51.022;7.082;2023-10-19T09:56:17;18.90;99.90
48328;DHT22;34136;51.022;7.082;2023-10-19T09:59:06;19.00;99.90
48328;DHT22;34136;51.022;7.082;2023-10-19T10:02:13;19.00;99.90
48328;DHT22;34136;51.022;7.082;2023-10-19T10:05:00;19.10;99.90
48328;DHT22;34136;51.022;7.082;2023-10-19T10:07:46;19.10;99.90
48328;DHT22;34136;51.022;7.082;2023-10-19T10:10:32;19.20;99.90
48328;DHT22;34136;51.022;7.082;2023-10-19T10:16:15;19.30;99.90
48328;DHT22;34136;51.022;7.082;2023-10-19T10:19:02;19.20;99.90
48328;DHT22;34136;51.022;7.082;2023-10-19T10:22:10;19.20;99.90
48328;DHT22;34136;51.022;7.082;2023-10-19T10:24:56;19.10;99.90
48328;DHT22;34136;51.022;7.082;2023-10-19T10:27:51;19.10;99.90
48328;DHT22;34136;51.022;7.082;2023-10-19T10:31:09;19.20;99.90
48328;DHT22;34136;51.022;7.082;2023-10-19T10:33:55;19.30;99.90
48328;DHT22;34136;51.022;7.082;2023-10-19T10:37:17;19.30;99.90
48328;DHT22;34136;51.022;7.082;2023-10-19T10:40:04;19.30;99.90
48328;DHT22;34136;51.022;7.082;2023-10-19T10:43:05;19.40;99.90
48328;DHT22;34136;51.022;7.082;2023-10-19T10:45:51;19.50;99.90
48328;DHT22;34136;51.022;7.082;2023-10-19T10:48:41;19.70;99.90
48328;DHT22;34136;51.022;7.082;2023-10-19T10:51:28;19.80;99.90
48328;DHT22;34136;51.022;7.082;2023-10-19T10:54:14;19.80;99.90
48328;DHT22;34136;51.022;7.082;2023-10-19T10:57:00;19.70;99.90
48328;DHT22;34136;51.022;7.082;2023-10-19T10:59:47;19.70;99.90
48328;DHT22;34136;51.022;7.082;2023-10-19T11:02:35;19.70;99.90
48328;DHT22;34136;51.022;7.082;2023-10-19T11:05:21;19.80;99.90
48328;DHT22;34136;51.022;7.082;2023-10-19T11:08:15;19.70;99.90
48328;DHT22;34136;51.022;7.082;2023-10-19T11:11:06;19.80;99.90
48328;DHT22;34136;51.022;7.082;2023-10-19T11:13:53;19.80;99.90
48328;DHT22;34136;51.022;7.082;2023-10-19T11:16:39;19.80;99.90
48328;DHT22;34136;51.022;7.082;2023-10-19T11:19:38;19.80;99.90
48328;DHT22;34136;51.022;7.082;2023-10-19T11:22:25;19.70;99.90
48328;DHT22;34136;51.022;7.082;2023-10-19T11:25:19;19.80;99.90
48328;DHT22;34136;51.022;7.082;2023-10-19T11:28:16;19.90;99.90
48328;DHT22;34136;51.022;7.082;2023-10-19T11:31:12;19.90;99.90
48328;DHT22;34136;51.022;7.082;2023-10-19T11:33:59;20.10;99.90
48328;DHT22;34136;51.022;7.082;2023-10-19T11:36:45;19.90;99.90
48328;DHT22;34136;51.022;7.082;2023-10-19T11:39:32;20.00;99.90
48328;DHT22;34136;51.022;7.082;2023-10-19T11:42:18;19.90;99.90
48328;DHT22;34136;51.022;7.082;2023-10-19T11:45:04;19.80;99.90
48328;DHT22;34136;51.022;7.082;2023-10-19T11:47:52;19.80;99.90
48328;DHT22;34136;51.022;7.082;2023-10-19T11:50:38;19.80;99.90
48328;DHT22;34136;51.022;7.082;2023-10-19T11:53:24;19.70;99.90
48328;DHT22;34136;51.022;7.082;2023-10-19T11:56:12;19.70;99.90
48328;DHT22;34136;51.022;7.082;2023-10-19T11:58:58;19.70;99.90
48328;DHT22;34136;51.022;7.082;2023-10-19T12:01:44;19.60;99.90
48328;DHT22;34136;51.022;7.082;2023-10-19T12:04:31;19.70;99.90
48328;DHT22;34136;51.022;7.082;2023-10-19T12:07:17;19.60;99.90
48328;DHT22;34136;51.022;7.082;2023-10-19T12:10:09;19.70;99.90
48328;DHT22;34136;51.022;7.082;2023-10-19T12:12:55;19.70;99.90
48328;DHT22;34136;51.022;7.082;2023-10-19T12:15:42;19.60;99.90
48328;DHT22;34136;51.022;7.082;2023-10-19T12:18:28;19.60;99.90
48328;DHT22;34136;51.022;7.082;2023-10-19T12:21:14;19.50;99.90
48328;DHT22;34136;51.022;7.082;2023-10-19T12:24:01;19.50;99.90
48328;DHT22;34136;51.022;7.082;2023-10-19T12:26:47;19.40;99.90
48328;DHT22;34136;51.022;7.082;2023-10-19T12:29:33;19.50;99.90
48328;DHT22;34136;51.022;7.082;2023-10-19T12:32:21;19.50;99.90
48328;DHT22;34136;51.022;7.082;2023-10-19T12:35:07;19.50;99.90
48328;DHT22;34136;51.022;7.082;2023-10-19T12:37:53;19.50;99.90
48328;DHT22;34136;51.022;7.082;2023-10-19T12:40:40;19.40;99.90
48328;DHT22;34136;51.022;7.082;2023-10-19T12:43:26;19.40;99.90
48328;DHT22;34136;51.022;7.082;2023-10-19T12:46:13;19.40;99.90
48328;DHT22;34136;51.022;7.082;2023-10-19T12:49:00;19.30;99.90
48328;DHT22;34136;51.022;7.082;2023-10-19T12:51:46;19.20;99.90
48328;DHT22;34136;51.022;7.082;2023-10-19T12:54:34;19.10;99.90
48328;DHT22;34136;51.022;7.082;2023-10-19T12:57:20;19.10;99.90
48328;DHT22;34136;51.022;7.082;2023-10-19T13:00:08;19.10;99.90
48328;DHT22;34136;51.022;7.082;2023-10-19T13:02:55;19.10;99.90
48328;DHT22;34136;51.022;7.082;2023-10-19T13:05:42;19.00;99.90
48328;DHT22;34136;51.022;7.082;2023-10-19T13:08:29;19.00;99.90
48328;DHT22;34136;51.022;7.082;2023-10-19T13:11:15;18.80;99.90
48328;DHT22;34136;51.022;7.082;2023-10-19T13:14:01;18.70;99.90
48328;DHT22;34136;51.022;7.082;2023-10-19T13:16:48;18.70;99.90
48328;DHT22;34136;51.022;7.082;2023-10-19T13:19:34;18.80;99.90
48328;DHT22;34136;51.022;7.082;2023-10-19T13:22:21;18.80;99.90
48328;DHT22;34136;51.022;7.082;2023-10-19T13:25:07;18.80;99.90
48328;DHT22;34136;51.022;7.082;2023-10-19T13:27:53;18.80;99.90
48328;DHT22;34136;51.022;7.082;2023-10-19T13:30:42;18.80;99.90
48328;DHT22;34136;51.022;7.082;2023-10-19T13:33:28;18.80;99.90
48328;DHT22;34136;51.022;7.082;2023-10-19T13:36:15;18.90;99.90
48328;DHT22;34136;51.022;7.082;2023-10-19T13:39:01;18.90;99.90
48328;DHT22;34136;51.022;7.082;2023-10-19T13:41:47;18.80;99.90
48328;DHT22;34136;51.022;7.082;2023-10-19T13:44:33;18.70;99.90
48328;DHT22;34136;51.022;7.082;2023-10-19T13:47:19;18.60;99.90
48328;DHT22;34136;51.022;7.082;2023-10-19T13:50:06;18.60;99.90
48328;DHT22;34136;51.022;7.082;2023-10-19T13:52:53;18.60;99.90
48328;DHT22;34136;51.022;7.082;2023-10-19T13:55:40;18.60;99.90
48328;DHT22;34136;51.022;7.082;2023-10-19T13:58:27;18.60;99.90
48328;DHT22;34136;51.022;7.082;2023-10-19T14:01:13;18.50;99.90
48328;DHT22;34136;51.022;7.082;2023-10-19T14:03:59;18.50;1.40
48328;DHT22;34136;51.022;7.082;2023-10-19T14:06:45;18.50;1.40
48328;DHT22;34136;51.022;7.082;2023-10-19T14:09:32;18.50;1.40
48328;DHT22;34136;51.022;7.082;2023-10-19T14:12:18;18.50;1.00
48328;DHT22;34136;51.022;7.082;2023-10-19T14:15:04;18.40;1.00
48328;DHT22;34136;51.022;7.082;2023-10-19T14:17:51;18.40;1.00
48328;DHT22;34136;51.022;7.082;2023-10-19T14:20:37;18.30;1.00
48328;DHT22;34136;51.022;7.082;2023-10-19T14:23:23;18.20;1.00
48328;DHT22;34136;51.022;7.082;2023-10-19T14:26:10;18.20;1.00
48328;DHT22;34136;51.022;7.082;2023-10-19T14:28:56;18.20;1.00
48328;DHT22;34136;51.022;7.082;2023-10-19T14:31:42;18.20;1.00
48328;DHT22;34136;51.022;7.082;2023-10-19T14:34:28;18.10;1.00
48328;DHT22;34136;51.022;7.082;2023-10-19T14:37:14;18.20;1.00
48328;DHT22;34136;51.022;7.082;2023-10-19T14:40:01;18.10;1.00
48328;DHT22;34136;51.022;7.082;2023-10-19T14:45:52;18.10;1.00
48328;DHT22;34136;51.022;7.082;2023-10-19T14:48:38;18.00;1.00
48328;DHT22;34136;51.022;7.082;2023-10-19T14:51:24;18.00;1.00
48328;DHT22;34136;51.022;7.082;2023-10-19T14:54:10;17.80;1.00
48328;DHT22;34136;51.022;7.082;2023-10-19T14:56:56;17.80;1.00
48328;DHT22;34136;51.022;7.082;2023-10-19T14:59:43;17.70;1.00
48328;DHT22;34136;51.022;7.082;2023-10-19T15:02:29;17.70;1.00
48328;DHT22;34136;51.022;7.082;2023-10-19T15:05:15;17.70;1.00
48328;DHT22;34136;51.022;7.082;2023-10-19T15:08:01;17.80;1.00
48328;DHT22;34136;51.022;7.082;2023-10-19T15:10:47;17.80;1.00
48328;DHT22;34136;51.022;7.082;2023-10-19T15:13:33;17.80;1.00
48328;DHT22;34136;51.022;7.082;2023-10-19T15:16:19;17.80;1.00
48328;DHT22;34136;51.022;7.082;2023-10-19T15:19:06;17.80;1.00
48328;DHT22;34136;51.022;7.082;2023-10-19T15:22:33;17.90;1.00
48328;DHT22;34136;51.022;7.082;2023-10-19T15:25:31;17.90;1.00
48328;DHT22;34136;51.022;7.082;2023-10-19T15:28:27;17.90;1.00
48328;DHT22;34136;51.022;7.082;2023-10-19T15:36:11;17.90;1.00
48328;DHT22;34136;51.022;7.082;2023-10-19T18:19:08;16.10;1.00
48328;DHT22;34136;51.022;7.082;2023-10-19T18:21:55;16.00;1.00
48328;DHT22;34136;51.022;7.082;2023-10-19T18:24:52;16.10;1.00
48328;DHT22;34136;51.022;7.082;2023-10-19T18:27:42;16.00;1.00
48328;DHT22;34136;51.022;7.082;2023-10-19T18:35:01;16.00;1.00
48328;DHT22;34136;51.022;7.082;2023-10-19T18:57:18;15.80;1.00
48328;DHT22;34136;51.022;7.082;2023-10-19T19:00:13;15.80;1.00
48328;DHT22;34136;51.022;7.082;2023-10-19T19:03:41;15.80;1.00
48328;DHT22;34136;51.022;7.082;2023-10-19T19:07:54;15.80;1.00
48328;DHT22;34136;51.022;7.082;2023-10-19T19:11:39;15.80;1.00
48328;DHT22;34136;51.022;7.082;2023-10-19T19:14:27;15.70;1.00
48328;DHT22;34136;51.022;7.082;2023-10-19T19:17:13;15.70;1.00
48328;DHT22;34136;51.022;7.082;2023-10-19T19:20:00;15.70;1.00
48328;DHT22;34136;51.022;7.082;2023-10-19T19:22:46;15.70;1.00
48328;DHT22;34136;51.022;7.082;2023-10-19T19:25:33;15.70;1.00
48328;DHT22;34136;51.022;7.082;2023-10-19T19:28:28;15.60;1.00
48328;DHT22;34136;51.022;7.082;2023-10-19T19:31:38;15.60;1.00
48328;DHT22;34136;51.022;7.082;2023-10-19T19:34:54;15.60;1.00
48328;DHT22;34136;51.022;7.082;2023-10-19T19:37:43;15.60;1.00
48328;DHT22;34136;51.022;7.082;2023-10-19T19:40:29;15.60;1.00
48328;DHT22;34136;51.022;7.082;2023-10-19T19:43:16;15.60;1.00
48328;DHT22;34136;51.022;7.082;2023-10-19T19:46:02;15.50;1.00
48328;DHT22;34136;51.022;7.082;2023-10-19T19:48:48;15.60;1.00
48328;DHT22;34136;51.022;7.082;2023-10-19T19:51:35;15.60;1.00
48328;DHT22;34136;51.022;7.082;2023-10-19T19:54:22;15.60;1.00
48328;DHT22;34136;51.022;7.082;2023-10-19T19:57:08;15.60;1.00
48328;DHT22;34136;51.022;7.082;2023-10-19T19:59:57;15.50;1.00
48328;DHT22;34136;51.022;7.082;2023-10-19T20:02:44;15.50;1.00
48328;DHT22;34136;51.022;7.082;2023-10-19T20:05:31;15.50;1.00
48328;DHT22;34136;51.022;7.082;2023-10-19T20:08:18;15.50;1.00
48328;DHT22;34136;51.022;7.082;2023-10-19T20:11:05;15.60;1.00
48328;DHT22;34136;51.022;7.082;2023-10-19T20:13:51;15.60;1.00
48328;DHT22;34136;51.022;7.082;2023-10-19T20:16:40;15.50;1.00
48328;DHT22;34136;51.022;7.082;2023-10-19T20:19:26;15.50;1.00
48328;DHT22;34136;51.022;7.082;2023-10-19T20:22:13;15.50;1.00
48328;DHT22;34136;51.022;7.082;2023-10-19T20:25:02;15.60;1.00
48328;DHT22;34136;51.022;7.082;2023-10-19T20:27:48;15.60;1.00
48328;DHT22;34136;51.022;7.082;2023-10-19T20:30:34;15.60;1.00
48328;DHT22;34136;51.022;7.082;2023-10-19T20:33:21;15.60;1.00
48328;DHT22;34136;51.022;7.082;2023-10-19T20:36:07;15.60;1.00
48328;DHT22;34136;51.022;7.082;2023-10-19T20:38:54;15.60;1.00
48328;DHT22;34136;51.022;7.082;2023-10-19T20:41:40;15.50;1.00
48328;DHT22;34136;51.022;7.082;2023-10-19T20:44:26;15.50;1.00
48328;DHT22;34136;51.022;7.082;2023-10-19T20:47:13;15.50;1.00
48328;DHT22;34136;51.022;7.082;2023-10-19T20:49:59;15.50;1.00
48328;DHT22;34136;51.022;7.082;2023-10-19T20:52:46;15.40;1.00
48328;DHT22;34136;51.022;7.082;2023-10-19T20:55:33;15.40;1.00
48328;DHT22;34136;51.022;7.082;2023-10-19T20:58:19;15.50;1.00
48328;DHT22;34136;51.022;7.082;2023-10-19T21:01:06;15.40;1.00
48328;DHT22;34136;51.022;7.082;2023-10-19T21:03:53;15.40;1.00
48328;DHT22;34136;51.022;7.082;2023-10-19T21:06:39;15.40;1.00
48328;DHT22;34136;51.022;7.082;2023-10-19T21:09:25;15.40;1.00